Time;durP1;ratioP1;P1;durP2;ratioP2;P2;SDS_P1;SDS_P2;PMS_P1;PMS_P2;Temp;Humidity;BMP_temperature;BMP_pressure;BME280_temperature;BME280_humidity;BME280_pressure;Samples;Min_cycle;Max_cycle;Signal;HPM_P1;HPM_P2
2022/08/22 00:01:06;;;;;;;;;;;;;;;29.20;73.49;100686.09;5091253;27;70858;-33
2022/08/22 00:03:47;;;;;;;;;;;;;;;29.28;75.12;100693.97;5085202;27;67441;-34
2022/08/22 00:06:32;;;;;;;;;;;;;;;29.32;76.13;100703.28;5089182;27;71379;-34
2022/08/22 00:09:21;;;;;;;;;;;;;;;29.34;77.26;100693.09;5084803;27;67390;-36
2022/08/22 00:11:58;;;;;;;;;;;;;;;29.42;77.66;100702.00;5089924;27;70830;-35
2022/08/22 00:14:36;;;;;;;;;;;;;;;29.47;77.76;100707.59;5082337;27;66666;-34
2022/08/22 00:17:24;;;;;;;;;;;;;;;29.53;78.60;100712.13;5084594;27;70923;-34
2022/08/22 00:20:03;;;;;;;;;;;;;;;29.58;78.44;100709.63;5085744;27;67519;-34
2022/08/22 00:22:41;;;;;;;;;;;;;;;29.62;78.32;100711.69;5087400;27;70535;-36
2022/08/22 00:25:32;;;;;;;;;;;;;;;29.68;78.52;100720.00;5085079;27;66437;-36
2022/08/22 00:28:19;;;;;;;;;;;;;;;29.71;78.73;100723.09;5077989;27;71024;-37
2022/08/22 00:31:06;;;;;;;;;;;;;;;29.81;75.32;100722.63;5058771;27;67191;-35
2022/08/22 00:33:42;;;;;;;;;;;;;;;29.91;73.92;100719.44;5083342;27;70394;-35
2022/08/22 00:36:15;;;;;;;;;;;;;;;29.99;73.70;100732.72;5087853;27;66631;-35
2022/08/22 00:38:52;;;;;;;;;;;;;;;30.05;73.39;100732.66;5082304;27;70132;-36
2022/08/22 00:41:28;;;;;;;;;;;;;;;30.12;72.89;100738.03;5078546;27;67551;-35
2022/08/22 00:44:18;;;;;;;;;;;;;;;30.20;72.35;100747.75;5064551;27;70812;-35
2022/08/22 00:46:51;;;;;;;;;;;;;;;30.25;72.21;100747.97;5081087;27;67045;-35
2022/08/22 00:49:38;;;;;;;;;;;;;;;30.28;72.00;100759.19;5083105;27;70683;-35
2022/08/22 00:52:13;;;;;;;;;;;;;;;30.34;70.99;100772.88;5082484;27;66131;-36
2022/08/22 00:55:15;;;;;;;;;;;;;;;30.38;70.66;100769.50;5051485;28;69936;-36
2022/08/22 00:57:47;;;;;;;;;;;;;;;30.44;70.07;100784.03;5061103;27;65969;-35
2022/08/22 01:00:24;;;;;;;;;;;;;;;30.46;70.71;100781.97;5099822;27;70306;-35
2022/08/22 01:02:55;;;;;;;;;;;;;;;30.50;70.16;100788.56;5100137;27;66649;-35
2022/08/22 01:05:27;;;;;;;;;;;;;;;30.54;69.69;100792.50;5097461;27;70080;-36
2022/08/22 01:08:16;;;;;;;;;;;;;;;30.57;69.66;100799.38;5078388;27;66339;-35
2022/08/22 01:11:11;;;;;;;;;;;;;;;30.59;69.30;100798.09;5087277;27;70846;-36
2022/08/22 01:13:49;;;;;;;;;;;;;;;30.64;68.82;100797.41;5092088;27;67372;-35
2022/08/22 01:16:30;;;;;;;;;;;;;;;30.65;69.17;100797.22;5098791;27;71240;-35
2022/08/22 01:19:20;;;;;;;;;;;;;;;30.68;68.87;100802.19;5099299;27;67303;-35
2022/08/22 01:21:52;;;;;;;;;;;;;;;30.71;68.74;100804.44;5094420;27;70848;-38
2022/08/22 01:25:16;;;;;;;;;;;;;;;30.73;68.12;100810.47;5092886;27;67297;-36
2022/08/22 01:27:37;;;;;;;;;;;;;;;30.78;67.42;100808.97;5075980;27;70031;-36
2022/08/22 01:30:17;;;;;;;;;;;;;;;30.80;67.51;100809.63;5094284;27;67179;-35
2022/08/22 01:32:58;;;;;;;;;;;;;;;30.82;67.61;100800.22;5090879;27;71043;-36
2022/08/22 01:35:49;;;;;;;;;;;;;;;30.84;67.62;100806.25;5069042;27;67183;-36
2022/08/22 01:38:34;;;;;;;;;;;;;;;30.64;70.17;100800.94;5088125;27;70352;-36
2022/08/22 01:41:15;;;;;;;;;;;;;;;30.56;72.06;100809.34;5085027;27;65937;-34
2022/08/22 01:43:58;;;;;;;;;;;;;;;30.48;72.30;100798.81;5086286;27;71466;-36
2022/08/22 01:46:37;;;;;;;;;;;;;;;30.45;73.04;100799.22;5089381;27;67081;-38
2022/08/22 01:49:15;;;;;;;;;;;;;;;30.46;73.01;100798.19;5085741;27;70272;-36
2022/08/22 01:51:55;;;;;;;;;;;;;;;30.56;72.29;100795.81;5084222;27;66903;-37
2022/08/22 01:54:50;;;;;;;;;;;;;;;30.66;71.39;100798.84;5067434;27;70815;-35
2022/08/22 01:57:23;;;;;;;;;;;;;;;30.75;71.89;100796.69;5084801;27;67742;-36
2022/08/22 01:59:58;;;;;;;;;;;;;;;30.84;71.21;100802.69;5099787;27;71030;-36
2022/08/22 02:02:41;;;;;;;;;;;;;;;30.91;71.36;100803.47;5073841;27;66721;-35
2022/08/22 02:05:17;;;;;;;;;;;;;;;30.97;71.29;100805.28;5086659;27;69466;-37
2022/08/22 02:07:56;;;;;;;;;;;;;;;31.02;70.86;100789.19;5085069;27;66391;-37
2022/08/22 02:10:44;;;;;;;;;;;;;;;31.07;70.89;100789.38;5084285;27;70462;-36
2022/08/22 02:13:19;;;;;;;;;;;;;;;31.12;70.60;100784.09;5087407;27;67023;-35
2022/08/22 02:16:14;;;;;;;;;;;;;;;31.18;70.77;100779.66;5088509;27;70928;-36
2022/08/22 02:18:45;;;;;;;;;;;;;;;31.24;70.39;100786.06;5074641;27;66005;-35
2022/08/22 02:21:29;;;;;;;;;;;;;;;31.28;69.95;100784.56;5059068;27;70791;-36
2022/08/22 02:24:07;;;;;;;;;;;;;;;31.31;70.28;100775.97;5083635;27;67447;-36
2022/08/22 02:27:03;;;;;;;;;;;;;;;31.34;69.58;100772.81;5093359;27;70914;-36
2022/08/22 02:29:42;;;;;;;;;;;;;;;31.36;69.77;100774.25;5051552;28;66830;-36
2022/08/22 02:32:20;;;;;;;;;;;;;;;31.42;69.79;100771.72;5064421;28;71234;-36
2022/08/22 02:34:59;;;;;;;;;;;;;;;31.45;69.88;100761.22;5086508;27;67326;-35
2022/08/22 02:37:34;;;;;;;;;;;;;;;31.48;69.22;100760.81;5091224;27;70184;-36
2022/08/22 02:40:12;;;;;;;;;;;;;;;31.51;69.10;100768.47;5094121;27;67644;-36
2022/08/22 02:42:51;;;;;;;;;;;;;;;31.55;69.11;100768.84;5080022;27;71005;-35
2022/08/22 02:45:29;;;;;;;;;;;;;;;31.57;68.79;100772.97;5082370;27;66148;-35
2022/08/22 02:48:00;;;;;;;;;;;;;;;31.59;68.93;100768.16;5087183;27;71224;-35
2022/08/22 02:50:44;;;;;;;;;;;;;;;31.63;68.66;100765.00;5063894;27;67185;-35
2022/08/22 02:53:20;;;;;;;;;;;;;;;31.65;68.66;100766.44;5085071;27;70503;-36
2022/08/22 02:56:08;;;;;;;;;;;;;;;31.68;68.56;100767.81;5088179;27;66406;-34
2022/08/22 02:59:02;;;;;;;;;;;;;;;31.69;68.57;100770.31;5094022;27;70382;-35
2022/08/22 03:01:39;;;;;;;;;;;;;;;31.73;67.86;100757.13;5077711;27;65914;-34
2022/08/22 03:04:26;;;;;;;;;;;;;;;31.76;68.03;100753.94;5086686;27;71292;-36
2022/08/22 03:07:11;;;;;;;;;;;;;;;31.77;67.93;100755.63;5058839;27;67097;-35
2022/08/22 03:09:43;;;;;;;;;;;;;;;31.80;67.70;100749.75;5074429;28;70970;-35
2022/08/22 03:12:19;;;;;;;;;;;;;;;31.82;67.73;100753.06;5086280;27;69038;-35
2022/08/22 03:15:21;;;;;;;;;;;;;;;31.85;67.53;100741.75;5091392;27;70952;-36
2022/08/22 03:18:05;;;;;;;;;;;;;;;31.87;67.22;100733.34;5069006;27;67173;-36
2022/08/22 03:20:37;;;;;;;;;;;;;;;31.89;66.98;100736.69;5091449;27;70888;-36
2022/08/22 03:23:15;;;;;;;;;;;;;;;31.89;67.25;100732.06;5087224;27;67079;-36
2022/08/22 03:25:51;;;;;;;;;;;;;;;31.92;67.38;100730.81;5083619;27;70684;-36
2022/08/22 03:28:27;;;;;;;;;;;;;;;31.92;67.16;100726.22;5058479;27;67100;-36
2022/08/22 03:31:07;;;;;;;;;;;;;;;31.95;66.80;100724.94;5085615;27;70341;-36
2022/08/22 03:33:41;;;;;;;;;;;;;;;31.97;66.94;100722.81;5066564;27;67541;-36
2022/08/22 03:36:16;;;;;;;;;;;;;;;31.97;67.24;100723.63;5093836;27;71065;-35
2022/08/22 03:38:53;;;;;;;;;;;;;;;31.98;66.93;100714.47;5083580;27;66330;-36
2022/08/22 03:41:48;;;;;;;;;;;;;;;31.99;66.56;100713.41;5085558;27;70754;-37
2022/08/22 03:44:37;;;;;;;;;;;;;;;32.01;66.40;100707.72;5085177;27;67178;-36
2022/08/22 03:47:15;;;;;;;;;;;;;;;32.01;66.55;100714.00;5086579;27;70393;-36
2022/08/22 03:50:04;;;;;;;;;;;;;;;32.03;66.40;100719.19;5090317;27;66610;-36
2022/08/22 03:53:06;;;;;;;;;;;;;;;32.03;66.58;100711.84;5081733;27;70168;-36
2022/08/22 03:55:52;;;;;;;;;;;;;;;32.04;66.00;100710.00;5091680;27;67208;-35
2022/08/22 03:58:24;;;;;;;;;;;;;;;32.04;66.40;100699.97;5094821;27;70860;-35
2022/08/22 04:01:10;;;;;;;;;;;;;;;32.05;65.86;100690.75;5087372;27;67453;-36
2022/08/22 04:03:42;;;;;;;;;;;;;;;32.07;66.21;100689.69;5093363;27;70762;-35
2022/08/22 04:06:34;;;;;;;;;;;;;;;32.08;66.09;100683.22;5092893;27;66738;-35
2022/08/22 04:09:25;;;;;;;;;;;;;;;32.09;66.17;100679.44;5086353;27;70137;-35
2022/08/22 04:12:04;;;;;;;;;;;;;;;32.10;66.13;100672.97;5084570;27;66708;-36
2022/08/22 04:14:36;;;;;;;;;;;;;;;32.10;66.31;100664.81;5050648;27;70393;-36
2022/08/22 04:17:26;;;;;;;;;;;;;;;32.12;66.27;100651.81;5093243;27;66766;-36
2022/08/22 04:20:01;;;;;;;;;;;;;;;32.13;66.02;100650.78;5085837;27;70990;-37
2022/08/22 04:23:02;;;;;;;;;;;;;;;32.15;66.14;100649.50;5084016;27;67515;-36
2022/08/22 04:25:42;;;;;;;;;;;;;;;32.16;65.78;100639.47;5086691;27;71051;-36
2022/08/22 04:28:20;;;;;;;;;;;;;;;32.17;65.97;100631.06;5085214;27;67137;-36
2022/08/22 04:31:01;;;;;;;;;;;;;;;32.21;65.84;100636.88;5064604;28;69861;-36
2022/08/22 04:33:50;;;;;;;;;;;;;;;32.23;65.80;100626.59;5096676;27;66814;-35
2022/08/22 04:36:25;;;;;;;;;;;;;;;32.24;65.83;100615.50;5088210;27;70888;-35
2022/08/22 04:39:29;;;;;;;;;;;;;;;32.26;65.59;100617.97;5083920;27;67189;-35
2022/08/22 04:42:14;;;;;;;;;;;;;;;32.27;65.67;100611.50;5031386;27;71035;-36
2022/08/22 04:45:09;;;;;;;;;;;;;;;32.30;65.42;100611.03;5085451;27;66340;-35
2022/08/22 04:47:44;;;;;;;;;;;;;;;32.33;65.41;100607.00;5088506;27;70879;-36
2022/08/22 04:50:53;;;;;;;;;;;;;;;32.36;65.12;100595.66;5083368;27;67347;-36
2022/08/22 04:53:26;;;;;;;;;;;;;;;32.36;64.97;100601.91;5072201;27;71394;-35
2022/08/22 04:56:00;;;;;;;;;;;;;;;32.40;64.95;100596.84;5087904;27;65949;-36
2022/08/22 04:58:46;;;;;;;;;;;;;;;32.43;65.04;100601.78;5082718;27;70220;-37
2022/08/22 05:01:25;;;;;;;;;;;;;;;32.44;64.58;100607.00;5086017;27;67411;-36
2022/08/22 05:03:59;;;;;;;;;;;;;;;32.45;64.50;100596.94;5085891;27;71244;-35
2022/08/22 05:06:33;;;;;;;;;;;;;;;32.45;64.85;100597.78;5082192;27;67051;-36
2022/08/22 05:09:11;;;;;;;;;;;;;;;32.46;64.61;100591.34;5067343;27;70799;-35
2022/08/22 05:11:48;;;;;;;;;;;;;;;32.49;64.60;100574.56;5089595;27;67102;-35
2022/08/22 05:14:25;;;;;;;;;;;;;;;32.51;64.33;100568.88;5087548;27;70406;-36
2022/08/22 05:16:57;;;;;;;;;;;;;;;32.54;64.12;100567.56;5089001;27;66599;-36
2022/08/22 05:19:33;;;;;;;;;;;;;;;32.56;64.03;100569.00;5087848;27;70087;-36
2022/08/22 05:22:13;;;;;;;;;;;;;;;32.59;63.81;100564.97;5082937;27;66348;-35
2022/08/22 05:24:47;;;;;;;;;;;;;;;32.62;63.69;100561.78;5086636;27;70594;-35
2022/08/22 05:27:24;;;;;;;;;;;;;;;32.64;63.96;100559.66;5086984;27;66913;-35
2022/08/22 05:30:01;;;;;;;;;;;;;;;32.65;63.46;100545.00;5084264;27;70103;-34
2022/08/22 05:32:39;;;;;;;;;;;;;;;32.67;63.66;100546.41;5085215;27;67082;-36
2022/08/22 05:35:14;;;;;;;;;;;;;;;32.67;63.59;100532.81;5091893;27;69876;-35
2022/08/22 05:37:50;;;;;;;;;;;;;;;32.68;63.59;100517.34;5067683;27;66274;-35
2022/08/22 05:40:25;;;;;;;;;;;;;;;32.71;63.50;100516.91;5081767;27;70187;-35
2022/08/22 05:42:57;;;;;;;;;;;;;;;32.75;63.26;100518.06;5081583;27;66524;-35
2022/08/22 05:45:31;;;;;;;;;;;;;;;32.76;63.35;100513.44;5088222;27;70324;-35
2022/08/22 05:48:14;;;;;;;;;;;;;;;32.78;62.91;100506.69;5092073;27;66533;-35
2022/08/22 05:51:08;;;;;;;;;;;;;;;32.81;62.95;100517.06;5083573;27;70353;-35
2022/08/22 05:53:43;;;;;;;;;;;;;;;32.83;62.78;100514.94;5085526;27;66356;-34
2022/08/22 05:56:34;;;;;;;;;;;;;;;32.84;62.94;100511.16;5082107;27;72290;-36
2022/08/22 05:59:32;;;;;;;;;;;;;;;32.87;62.67;100509.84;5080913;27;67125;-35
2022/08/22 06:02:19;;;;;;;;;;;;;;;32.89;62.93;100497.66;5084319;27;70951;-34
2022/08/22 06:04:59;;;;;;;;;;;;;;;32.91;62.58;100483.88;5086000;27;66222;-35
2022/08/22 06:07:46;;;;;;;;;;;;;;;32.94;62.39;100488.81;5089479;27;70859;-35
2022/08/22 06:10:24;;;;;;;;;;;;;;;32.97;62.42;100471.19;5085667;27;67019;-36
2022/08/22 06:13:00;;;;;;;;;;;;;;;33.00;62.29;100470.72;5078862;27;70609;-34
2022/08/22 06:15:51;;;;;;;;;;;;;;;33.03;62.16;100465.63;5088922;27;67154;-36
2022/08/22 06:18:25;;;;;;;;;;;;;;;33.06;62.17;100456.97;5086397;27;70660;-36
2022/08/22 06:21:01;;;;;;;;;;;;;;;33.10;62.10;100455.44;5076635;27;66444;-36
2022/08/22 06:23:41;;;;;;;;;;;;;;;33.13;61.79;100459.56;5087464;27;70774;-36
2022/08/22 06:26:13;;;;;;;;;;;;;;;33.18;61.81;100462.34;5089280;27;66891;-35
2022/08/22 06:28:52;;;;;;;;;;;;;;;33.22;61.81;100460.78;5092765;27;70610;-35
2022/08/22 06:31:30;;;;;;;;;;;;;;;33.25;61.50;100454.84;5089106;27;66563;-35
2022/08/22 06:34:02;;;;;;;;;;;;;;;33.28;61.41;100439.94;5086002;27;70983;-35
2022/08/22 06:36:36;;;;;;;;;;;;;;;33.29;61.32;100437.00;5088608;27;68087;-37
2022/08/22 06:39:18;;;;;;;;;;;;;;;33.32;61.02;100428.34;5089566;27;70323;-37
2022/08/22 06:41:56;;;;;;;;;;;;;;;33.37;61.03;100425.69;5084029;27;66189;-35
2022/08/22 06:44:34;;;;;;;;;;;;;;;33.41;60.94;100423.31;5087170;27;70058;-36
2022/08/22 06:47:09;;;;;;;;;;;;;;;33.46;61.02;100417.09;5073395;28;67197;-35
2022/08/22 06:49:44;;;;;;;;;;;;;;;33.48;60.96;100421.22;5082065;27;70991;-36
2022/08/22 06:52:24;;;;;;;;;;;;;;;33.51;60.67;100417.19;5081490;27;66589;-37
2022/08/22 06:54:59;;;;;;;;;;;;;;;33.55;60.50;100412.94;5080657;27;70033;-35
2022/08/22 06:57:31;;;;;;;;;;;;;;;33.56;60.54;100403.69;5084483;27;66004;-35
2022/08/22 07:00:09;;;;;;;;;;;;;;;33.58;60.62;100401.56;5092457;27;71058;-35
2022/08/22 07:03:04;;;;;;;;;;;;;;;33.60;60.63;100404.88;5085344;27;67294;-35
2022/08/22 07:05:39;;;;;;;;;;;;;;;33.63;60.20;100395.34;5082591;27;71126;-35
2022/08/22 07:08:13;;;;;;;;;;;;;;;33.64;60.50;100389.69;5082925;27;67597;-35
2022/08/22 07:10:55;;;;;;;;;;;;;;;33.68;60.20;100385.38;5081046;27;70129;-36
2022/08/22 07:13:27;;;;;;;;;;;;;;;33.69;60.37;100392.47;5083975;27;66294;-35
2022/08/22 07:16:04;;;;;;;;;;;;;;;33.72;60.04;100394.69;5088067;27;70455;-36
2022/08/22 07:18:46;;;;;;;;;;;;;;;33.75;60.08;100399.63;5087139;27;67248;-35
2022/08/22 07:21:26;;;;;;;;;;;;;;;33.79;60.24;100389.03;5090990;27;70325;-35
2022/08/22 07:24:00;;;;;;;;;;;;;;;33.83;60.15;100392.09;5071865;27;67060;-35
2022/08/22 07:26:32;;;;;;;;;;;;;;;33.85;59.78;100379.06;5079999;27;70255;-35
2022/08/22 07:29:09;;;;;;;;;;;;;;;33.89;59.87;100386.47;5059971;27;66269;-36
2022/08/22 07:32:04;;;;;;;;;;;;;;;33.94;59.85;100393.88;5080769;27;69945;-35
2022/08/22 07:34:39;;;;;;;;;;;;;;;33.96;59.43;100389.84;5077215;27;67188;-36
2022/08/22 07:37:31;;;;;;;;;;;;;;;34.00;59.34;100382.81;5083893;27;70183;-35
2022/08/22 07:40:06;;;;;;;;;;;;;;;34.05;59.05;100378.53;5085660;27;66651;-35
2022/08/22 07:42:56;;;;;;;;;;;;;;;34.09;58.87;100374.22;5071185;27;69965;-36
2022/08/22 07:45:36;;;;;;;;;;;;;;;34.13;58.77;100368.03;5082509;27;66511;-36
2022/08/22 07:48:20;;;;;;;;;;;;;;;34.17;58.45;100371.06;5084965;27;70345;-34
2022/08/22 07:51:02;;;;;;;;;;;;;;;34.20;58.62;100365.91;5080964;27;67042;-35
2022/08/22 07:53:54;;;;;;;;;;;;;;;34.24;58.20;100375.22;5084148;27;71180;-35
2022/08/22 07:56:34;;;;;;;;;;;;;;;34.29;58.51;100376.34;5080488;27;67446;-35
2022/08/22 07:59:13;;;;;;;;;;;;;;;34.31;58.33;100366.84;5086825;27;70664;-35
2022/08/22 08:01:52;;;;;;;;;;;;;;;34.35;58.17;100364.41;5084568;27;66646;-35
2022/08/22 08:04:27;;;;;;;;;;;;;;;34.38;57.81;100358.47;5072591;27;70150;-36
2022/08/22 08:07:01;;;;;;;;;;;;;;;34.38;57.98;100356.59;5087828;27;67360;-36
2022/08/22 08:09:36;;;;;;;;;;;;;;;34.40;57.70;100359.84;5069029;28;70258;-35
2022/08/22 08:12:10;;;;;;;;;;;;;;;34.41;57.64;100349.81;5085821;27;66724;-35
2022/08/22 08:14:43;;;;;;;;;;;;;;;34.43;57.70;100350.34;5088241;27;70317;-37
2022/08/22 08:17:24;;;;;;;;;;;;;;;34.45;57.35;100340.03;5091042;27;66568;-35
2022/08/22 08:20:06;;;;;;;;;;;;;;;34.47;57.48;100348.78;5086693;27;70672;-35
2022/08/22 08:22:39;;;;;;;;;;;;;;;34.47;57.44;100335.97;5088677;27;66804;-35
2022/08/22 08:25:16;;;;;;;;;;;;;;;34.50;57.43;100342.81;5084635;27;70762;-35
2022/08/22 08:30:43;;;;;;;;;;;;;;;34.54;57.31;100343.91;5087305;27;70149;-36
2022/08/22 08:33:19;;;;;;;;;;;;;;;34.55;56.99;100342.84;5083342;27;67481;-35
2022/08/22 08:36:02;;;;;;;;;;;;;;;34.57;56.94;100337.97;5058827;28;70117;-36
2022/08/22 08:38:42;;;;;;;;;;;;;;;34.59;57.38;100345.91;5092038;27;67070;-35
2022/08/22 08:41:32;;;;;;;;;;;;;;;34.59;56.85;100324.94;5081605;27;70404;-36
2022/08/22 08:44:21;;;;;;;;;;;;;;;34.61;56.84;100321.97;5054702;28;67145;-35
2022/08/22 08:47:01;;;;;;;;;;;;;;;34.60;57.21;100342.94;5085270;27;70566;-35
2022/08/22 08:49:47;;;;;;;;;;;;;;;34.59;57.10;100346.72;5088035;27;67149;-36
2022/08/22 08:52:36;;;;;;;;;;;;;;;34.59;57.10;100352.19;5085816;27;71120;-36
2022/08/22 08:55:10;;;;;;;;;;;;;;;34.57;56.77;100354.31;5076610;27;67223;-35
2022/08/22 08:57:51;;;;;;;;;;;;;;;34.55;56.82;100351.03;5088930;27;71859;-35
2022/08/22 09:00:44;;;;;;;;;;;;;;;34.53;56.90;100347.72;5068997;28;67311;-37
2022/08/22 09:03:36;;;;;;;;;;;;;;;34.51;56.92;100344.44;5088130;27;70950;-35
2022/08/22 09:06:27;;;;;;;;;;;;;;;34.48;56.80;100355.84;5085273;27;66580;-36
2022/08/22 09:09:02;;;;;;;;;;;;;;;34.48;57.05;100369.47;5086171;27;70333;-36
2022/08/22 09:11:37;;;;;;;;;;;;;;;34.45;56.78;100399.94;5075058;27;66815;-36
2022/08/22 09:14:11;;;;;;;;;;;;;;;34.45;57.47;100413.56;5084750;27;70042;-36
2022/08/22 09:16:55;;;;;;;;;;;;;;;34.42;56.95;100395.00;5067217;27;65906;-35
2022/08/22 09:19:31;;;;;;;;;;;;;;;34.40;57.06;100380.81;5088241;27;69965;-37
2022/08/22 09:22:04;;;;;;;;;;;;;;;34.39;57.00;100379.19;5087128;27;66540;-36
2022/08/22 09:24:43;;;;;;;;;;;;;;;34.38;57.10;100393.84;5085633;27;71249;-35
2022/08/22 09:27:20;;;;;;;;;;;;;;;34.39;56.82;100403.69;5085493;27;67396;-36
2022/08/22 09:30:14;;;;;;;;;;;;;;;34.37;57.28;100405.84;5085890;27;70465;-36
2022/08/22 09:32:53;;;;;;;;;;;;;;;34.36;57.34;100406.94;5080284;27;67230;-36
2022/08/22 09:35:45;;;;;;;;;;;;;;;34.36;57.64;100423.25;5087993;27;71108;-36
2022/08/22 09:38:25;;;;;;;;;;;;;;;34.34;57.18;100409.06;5086299;27;66941;-36
2022/08/22 09:41:15;;;;;;;;;;;;;;;34.31;57.31;100410.41;5085234;27;69319;-36
2022/08/22 09:44:06;;;;;;;;;;;;;;;34.31;57.44;100410.41;5084818;27;67256;-36
2022/08/22 09:46:55;;;;;;;;;;;;;;;34.29;57.48;100407.09;5083220;27;70877;-36
2022/08/22 09:49:34;;;;;;;;;;;;;;;34.29;57.25;100407.09;5082357;27;66377;-36
2022/08/22 09:52:15;;;;;;;;;;;;;;;34.30;57.33;100397.03;5085547;27;43326;-35
2022/08/22 09:55:18;;;;;;;;;;;;;;;34.28;57.39;100382.88;5084078;27;67525;-36
2022/08/22 09:58:16;;;;;;;;;;;;;;;34.26;57.05;100408.44;5083593;27;70908;-36
2022/08/22 10:00:54;;;;;;;;;;;;;;;34.25;57.17;100417.69;5081803;27;67450;-35
2022/08/22 10:03:29;;;;;;;;;;;;;;;34.23;57.41;100417.13;5087911;27;70865;-36
2022/08/22 10:06:07;;;;;;;;;;;;;;;34.22;57.33;100423.66;5093713;27;66460;-37
2022/08/22 10:08:38;;;;;;;;;;;;;;;34.21;57.25;100422.03;5085652;27;70179;-36
2022/08/22 10:11:25;;;;;;;;;;;;;;;34.06;58.02;100432.69;5085457;27;65975;-37
2022/08/22 10:14:09;;;;;;;;;;;;;;;33.75;60.45;100439.59;5051876;28;71004;-36
2022/08/22 10:16:57;;;;;;;;;;;;;;;33.54;62.28;100473.81;5083642;27;66453;-33
2022/08/22 10:19:30;;;;;;;;;;;;;;;33.41;63.50;100498.63;5086994;27;70959;-35
2022/08/22 10:22:04;;;;;;;;;;;;;;;33.32;64.21;100504.47;5083998;27;66879;-36
2022/08/22 10:24:42;;;;;;;;;;;;;;;33.27;64.48;100504.38;5084473;27;70563;-36
2022/08/22 10:27:22;;;;;;;;;;;;;;;33.24;64.92;100520.31;5083626;27;66851;-36
2022/08/22 10:30:11;;;;;;;;;;;;;;;33.23;65.10;100530.38;5086522;27;69878;-34
2022/08/22 10:32:48;;;;;;;;;;;;;;;33.24;64.05;100529.31;5056766;27;65855;-35
2022/08/22 10:35:22;;;;;;;;;;;;;;;33.24;64.33;100536.63;5077977;27;70949;-36
2022/08/22 10:37:59;;;;;;;;;;;;;;;33.20;64.53;100552.63;5078943;27;66567;-34
2022/08/22 10:40:32;;;;;;;;;;;;;;;33.18;64.76;100571.06;5075382;27;69682;-34
2022/08/22 10:43:12;;;;;;;;;;;;;;;33.19;64.78;100572.72;5082700;27;66821;-34
2022/08/22 10:45:47;;;;;;;;;;;;;;;33.17;64.61;100585.72;5078426;27;71297;-34
2022/08/22 10:48:22;;;;;;;;;;;;;;;33.12;64.65;100577.47;5082190;27;66838;-37
2022/08/22 10:51:03;;;;;;;;;;;;;;;33.10;64.62;100568.75;5061758;27;71024;-36
2022/08/22 10:53:52;;;;;;;;;;;;;;;33.07;64.40;100574.66;5081904;27;67380;-36
2022/08/22 10:56:32;;;;;;;;;;;;;;;33.08;65.55;100581.75;5077216;27;70948;-36
2022/08/22 10:59:04;;;;;;;;;;;;;;;33.06;65.85;100589.31;5078319;27;66816;-36
2022/08/22 11:01:46;;;;;;;;;;;;;;;33.03;66.06;100593.34;5055903;27;70539;-36
2022/08/22 11:04:38;;;;;;;;;;;;;;;32.99;66.76;100596.75;5075474;27;66259;-37
2022/08/22 11:07:18;;;;;;;;;;;;;;;32.94;66.64;100601.03;5075685;27;71233;-35
2022/08/22 11:09:55;;;;;;;;;;;;;;;32.91;66.90;100609.66;5076567;27;66694;-35
2022/08/22 11:12:33;;;;;;;;;;;;;;;32.88;67.07;100615.56;5079978;27;70178;-36
2022/08/22 11:15:17;;;;;;;;;;;;;;;32.86;67.80;100634.00;5062001;27;67106;-35
2022/08/22 11:18:16;;;;;;;;;;;;;;;32.83;68.10;100625.50;5063837;27;70953;-35
2022/08/22 11:20:48;;;;;;;;;;;;;;;32.81;67.89;100642.03;5059852;28;67175;-36
2022/08/22 11:23:30;;;;;;;;;;;;;;;32.77;68.01;100656.34;5056414;28;70127;-36
2022/08/22 11:26:08;;;;;;;;;;;;;;;32.75;68.71;100653.03;5074721;27;66859;-36
2022/08/22 11:29:00;;;;;;;;;;;;;;;32.73;68.75;100658.69;5048026;28;70274;-36
2022/08/22 11:31:46;;;;;;;;;;;;;;;32.71;68.77;100647.25;5064142;27;67033;-36
2022/08/22 11:34:27;;;;;;;;;;;;;;;32.69;68.62;100643.94;5045884;27;70648;-36
2022/08/22 11:37:18;;;;;;;;;;;;;;;32.68;68.78;100658.56;5078078;27;66997;-35
2022/08/22 11:40:02;;;;;;;;;;;;;;;32.65;69.11;100661.78;5066953;27;70875;-34
2022/08/22 11:42:46;;;;;;;;;;;;;;;32.63;69.16;100672.06;5073545;27;66292;-36
2022/08/22 11:45:25;;;;;;;;;;;;;;;32.62;69.47;100675.81;5031351;27;70128;-36
2022/08/22 11:48:17;;;;;;;;;;;;;;;32.60;69.63;100694.28;5084940;27;67050;-37
2022/08/22 11:51:06;;;;;;;;;;;;;;;32.58;69.69;100716.22;5080114;27;70092;-35
2022/08/22 11:54:01;;;;;;;;;;;;;;;32.56;69.69;100736.53;5069241;27;65909;-37
2022/08/22 11:56:44;;;;;;;;;;;;;;;32.54;69.87;100733.22;5083852;27;70773;-36
2022/08/22 11:59:18;;;;;;;;;;;;;;;32.54;69.72;100734.06;5039187;27;66093;-36
2022/08/22 12:01:55;;;;;;;;;;;;;;;32.53;70.04;100731.56;5086512;27;70752;-36
2022/08/22 12:04:39;;;;;;;;;;;;;;;32.51;69.82;100734.50;5081405;27;67570;-36
2022/08/22 12:07:18;;;;;;;;;;;;;;;32.50;69.79;100732.84;5081778;27;70828;-36
2022/08/22 12:10:09;;;;;;;;;;;;;;;32.47;69.77;100731.44;5079467;27;65960;-37
2022/08/22 12:13:06;;;;;;;;;;;;;;;32.46;69.83;100746.09;5055977;28;70954;-37
2022/08/22 12:15:58;;;;;;;;;;;;;;;32.44;69.40;100750.88;5071097;27;67118;-38
2022/08/22 12:18:39;;;;;;;;;;;;;;;32.44;69.74;100752.78;5060008;28;71031;-36
2022/08/22 12:21:21;;;;;;;;;;;;;;;32.46;70.25;100765.09;5080950;27;66300;-37
2022/08/22 12:23:59;;;;;;;;;;;;;;;32.45;70.50;100762.56;5043817;28;70843;-35
2022/08/22 12:26:54;;;;;;;;;;;;;;;32.44;70.43;100764.47;5069303;28;67220;-39
2022/08/22 12:29:54;;;;;;;;;;;;;;;32.43;70.30;100760.09;5034947;28;70239;-36
2022/08/22 12:32:47;;;;;;;;;;;;;;;32.41;70.45;100745.91;5055763;27;66464;-36
2022/08/22 12:35:39;;;;;;;;;;;;;;;32.41;70.36;100737.78;5082288;27;70452;-36
2022/08/22 12:38:35;;;;;;;;;;;;;;;32.39;70.34;100723.59;5058065;28;67300;-35
2022/08/22 12:41:10;;;;;;;;;;;;;;;32.37;70.73;100730.31;5057889;28;70432;-38
2022/08/22 12:43:44;;;;;;;;;;;;;;;32.42;70.86;100730.47;5082681;27;67537;-37
2022/08/22 12:46:45;;;;;;;;;;;;;;;32.42;70.65;100731.28;5064908;28;70465;-36
2022/08/22 12:49:28;;;;;;;;;;;;;;;32.44;70.60;100729.16;5066793;28;66329;-38
2022/08/22 12:52:07;;;;;;;;;;;;;;;32.43;70.60;100721.25;5083518;27;70613;-37
2022/08/22 12:54:42;;;;;;;;;;;;;;;32.43;70.76;100737.53;5052738;28;66215;-37
2022/08/22 12:57:26;;;;;;;;;;;;;;;32.42;70.48;100731.28;5080720;27;70768;-37
2022/08/22 13:00:03;;;;;;;;;;;;;;;32.41;70.54;100745.91;5045589;28;67157;-36
2022/08/22 13:02:38;;;;;;;;;;;;;;;32.40;70.90;100763.28;5045943;28;70630;-35
2022/08/22 13:05:13;;;;;;;;;;;;;;;32.39;71.08;100764.31;5088729;27;66633;-35
2022/08/22 13:08:01;;;;;;;;;;;;;;;32.38;70.93;100776.25;5090213;27;70968;-36
2022/08/22 13:10:34;;;;;;;;;;;;;;;32.38;70.82;100784.41;5088674;27;67135;-35
2022/08/22 13:13:07;;;;;;;;;;;;;;;32.37;70.83;100781.91;5088887;27;70666;-36
2022/08/22 13:15:47;;;;;;;;;;;;;;;32.34;70.75;100794.06;5098001;27;67253;-37
2022/08/22 13:18:24;;;;;;;;;;;;;;;32.33;70.93;100797.84;5092081;27;69663;-37
2022/08/22 13:21:02;;;;;;;;;;;;;;;32.33;70.90;100797.84;5065829;27;66877;-37
2022/08/22 13:23:42;;;;;;;;;;;;;;;32.32;71.06;100792.63;5082472;27;70598;-37
2022/08/22 13:26:22;;;;;;;;;;;;;;;32.31;71.26;100801.84;5090803;27;67536;-36
2022/08/22 13:29:25;;;;;;;;;;;;;;;32.24;71.42;100808.22;5064561;27;70686;-34
2022/08/22 13:32:19;;;;;;;;;;;;;;;32.14;70.93;100817.97;5081707;27;67172;-34
2022/08/22 13:34:56;;;;;;;;;;;;;;;32.03;71.54;100825.81;5086416;27;71176;-34
2022/08/22 13:37:33;;;;;;;;;;;;;;;32.01;72.72;100822.53;5082915;27;66895;-34
2022/08/22 13:40:09;;;;;;;;;;;;;;;32.01;73.24;100827.94;5085046;27;70959;-33
2022/08/22 13:42:46;;;;;;;;;;;;;;;32.01;73.24;100822.53;5082377;27;66330;-35
2022/08/22 13:45:24;;;;;;;;;;;;;;;32.03;73.29;100825.00;5082033;27;70998;-32
2022/08/22 13:47:58;;;;;;;;;;;;;;;31.99;73.89;100823.81;5085172;27;67042;-35
2022/08/22 13:50:35;;;;;;;;;;;;;;;31.98;73.69;100820.28;5051019;27;70103;-36